Time;durP1;ratioP1;P1;durP2;ratioP2;P2;SDS_P1;SDS_P2;PMS_P1;PMS_P2;Temp;Humidity;BMP_temperature;BMP_pressure;BME280_temperature;BME280_humidity;BME280_pressure;Samples;Min_cycle;Max_cycle;Signal;HPM_P1;HPM_P2
2022/11/10 00:02:11;;;;;;;;;;;;;;;;;;5064364;28;19924;-89
2022/11/10 00:04:37;;;;;;;;;;;;;;;;;;5059498;28;19926;-89
2022/11/10 00:07:02;;;;;;;;;;;;;;;;;;5067596;28;19956;-90
2022/11/10 00:09:27;;;;;;;;;;;;;;;;;;5076897;28;20366;-88
2022/11/10 00:11:53;;;;;;;;;;;;;;;;;;5055667;28;19960;-88
2022/11/10 00:17:05;;;;;;;;;;;;;;;;;;5048285;28;19928;-88
2022/11/10 00:19:30;;;;;;;;;;;;;;;;;;5031802;28;19948;-89
2022/11/10 00:21:56;;;;;;;;;;;;;;;;;;5031419;28;19964;-87
2022/11/10 00:24:22;;;;;;;;;;;;;;;;;;5031307;28;20032;-89
2022/11/10 00:26:47;;;;;;;;;;;;;;;;;;5031192;28;19917;-87
2022/11/10 00:29:13;;;;;;;;;;;;;;;;;;5031347;28;19921;-88
2022/11/10 00:31:39;;;;;;;;;;;;;;;;;;5032531;28;20380;-88
2022/11/10 00:34:05;;;;;;;;;;;;;;;;;;5032068;28;19956;-90
2022/11/10 00:36:30;;;;;;;;;;;;;;;;;;5031416;28;19972;-89
2022/11/10 00:38:56;;;;;;;;;;;;;;;;;;5047580;28;19921;-89
2022/11/10 00:41:21;;;;;;;;;;;;;;;;;;5032561;28;19917;-88
2022/11/10 00:43:47;;;;;;;;;;;;;;;;;;5064725;28;19913;-88
2022/11/10 00:46:13;;;;;;;;;;;;;;;;;;5047570;28;19917;-88
2022/11/10 00:48:38;;;;;;;;;;;;;;;;;;5032191;28;19921;-88
2022/11/10 00:51:04;;;;;;;;;;;;;;;;;;5065960;28;19925;-89
2022/11/10 00:53:29;;;;;;;;;;;;;;;;;;5050899;28;19921;-90
2022/11/10 00:55:54;;;;;;;;;;;;;;;;;;5051107;28;20258;-87
2022/11/10 00:58:20;;;;;;;;;;;;;;;;;;5052319;28;20383;-88
2022/11/10 01:00:45;;;;;;;;;;;;;;;;;;5088860;28;19932;-89
2022/11/10 01:03:15;;;;;;;;;;;;;;;;;;5056560;28;20023;-88
2022/11/10 01:05:41;;;;;;;;;;;;;;;;;;5055090;28;20277;-88
2022/11/10 01:08:06;;;;;;;;;;;;;;;;;;5053297;28;19917;-90
2022/11/10 01:10:32;;;;;;;;;;;;;;;;;;5036168;28;20261;-89
2022/11/10 01:12:58;;;;;;;;;;;;;;;;;;5050961;28;19917;-88
2022/11/10 01:15:23;;;;;;;;;;;;;;;;;;5036027;28;19975;-89
2022/11/10 01:17:49;;;;;;;;;;;;;;;;;;5042923;28;19920;-90
2022/11/10 01:20:15;;;;;;;;;;;;;;;;;;5057607;28;20010;-89
2022/11/10 01:22:40;;;;;;;;;;;;;;;;;;5069681;28;20303;-91
2022/11/10 01:25:07;;;;;;;;;;;;;;;;;;5072109;28;19929;-89
2022/11/10 01:27:32;;;;;;;;;;;;;;;;;;5055782;28;19960;-87
2022/11/10 01:29:57;;;;;;;;;;;;;;;;;;5055571;28;19998;-89
2022/11/10 01:32:23;;;;;;;;;;;;;;;;;;5053997;28;19971;-87
2022/11/10 01:34:48;;;;;;;;;;;;;;;;;;5055762;28;19921;-89
2022/11/10 01:37:16;;;;;;;;;;;;;;;;;;5073212;28;19966;-89
2022/11/10 01:39:42;;;;;;;;;;;;;;;;;;5108338;28;19916;-88
2022/11/10 01:42:08;;;;;;;;;;;;;;;;;;5067088;28;20415;-89
2022/11/10 01:44:33;;;;;;;;;;;;;;;;;;5055513;28;20396;-89
2022/11/10 01:46:58;;;;;;;;;;;;;;;;;;5054216;28;20097;-90
2022/11/10 01:49:25;;;;;;;;;;;;;;;;;;5054257;28;20372;-88
2022/11/10 01:51:51;;;;;;;;;;;;;;;;;;5054136;28;19916;-89
2022/11/10 01:54:19;;;;;;;;;;;;;;;;;;5070356;28;19923;-90
2022/11/10 01:56:47;;;;;;;;;;;;;;;;;;5054292;28;19917;-89
2022/11/10 01:59:14;;;;;;;;;;;;;;;;;;5068195;28;20399;-89
2022/11/10 02:01:40;;;;;;;;;;;;;;;;;;5050566;28;19917;-90
2022/11/10 02:04:07;;;;;;;;;;;;;;;;;;5034929;28;20633;-91
2022/11/10 02:06:34;;;;;;;;;;;;;;;;;;5050607;28;19917;-90
2022/11/10 02:08:59;;;;;;;;;;;;;;;;;;5034812;28;19917;-89
2022/11/10 02:11:25;;;;;;;;;;;;;;;;;;5049717;28;19924;-90
2022/11/10 02:13:51;;;;;;;;;;;;;;;;;;5035920;28;19938;-91
2022/11/10 02:16:17;;;;;;;;;;;;;;;;;;5054729;28;20007;-89
2022/11/10 02:18:42;;;;;;;;;;;;;;;;;;5054805;28;20338;-88
2022/11/10 02:21:08;;;;;;;;;;;;;;;;;;5087004;28;20332;-90
2022/11/10 02:23:33;;;;;;;;;;;;;;;;;;5054941;28;20387;-90
2022/11/10 02:25:59;;;;;;;;;;;;;;;;;;5069796;28;19959;-89
2022/11/10 02:28:26;;;;;;;;;;;;;;;;;;5054395;28;19917;-90
2022/11/10 02:30:51;;;;;;;;;;;;;;;;;;5048573;28;19928;-90
2022/11/10 02:33:17;;;;;;;;;;;;;;;;;;5033081;28;19917;-90
2022/11/10 02:35:42;;;;;;;;;;;;;;;;;;5066540;28;20039;-90
2022/11/10 02:38:08;;;;;;;;;;;;;;;;;;5034378;28;19920;-88
2022/11/10 02:40:33;;;;;;;;;;;;;;;;;;5034677;28;19928;-90
2022/11/10 02:42:59;;;;;;;;;;;;;;;;;;5034641;28;19917;-91
2022/11/10 02:45:24;;;;;;;;;;;;;;;;;;5068129;28;19971;-90
2022/11/10 02:47:50;;;;;;;;;;;;;;;;;;5054351;28;19952;-90
2022/11/10 02:50:16;;;;;;;;;;;;;;;;;;5054157;28;19927;-89
2022/11/10 02:52:41;;;;;;;;;;;;;;;;;;5054353;28;20211;-91
2022/11/10 02:55:07;;;;;;;;;;;;;;;;;;5052750;28;19916;-88
2022/11/10 02:57:32;;;;;;;;;;;;;;;;;;5053581;28;19917;-89
2022/11/10 02:59:58;;;;;;;;;;;;;;;;;;5086317;28;20300;-89
2022/11/10 03:02:23;;;;;;;;;;;;;;;;;;5041098;28;19921;-90
2022/11/10 03:04:48;;;;;;;;;;;;;;;;;;5033888;28;19928;-91
2022/11/10 03:07:14;;;;;;;;;;;;;;;;;;5049465;28;19917;-90
2022/11/10 03:09:39;;;;;;;;;;;;;;;;;;5034047;28;19963;-89
2022/11/10 03:12:05;;;;;;;;;;;;;;;;;;5049220;28;20432;-88
2022/11/10 03:14:30;;;;;;;;;;;;;;;;;;5033851;28;20024;-89
2022/11/10 03:16:56;;;;;;;;;;;;;;;;;;5033499;28;20372;-89
2022/11/10 03:19:21;;;;;;;;;;;;;;;;;;5033751;28;20384;-90
2022/11/10 03:21:46;;;;;;;;;;;;;;;;;;5044789;28;19916;-89
2022/11/10 03:24:12;;;;;;;;;;;;;;;;;;5096481;28;19970;-89
2022/11/10 03:26:37;;;;;;;;;;;;;;;;;;5062614;28;19924;-89
2022/11/10 03:29:03;;;;;;;;;;;;;;;;;;5073433;28;19920;-88
2022/11/10 03:31:28;;;;;;;;;;;;;;;;;;5105622;28;20010;-90
2022/11/10 03:33:54;;;;;;;;;;;;;;;;;;5073233;28;20018;-90
2022/11/10 03:36:19;;;;;;;;;;;;;;;;;;5052609;28;19928;-90
2022/11/10 03:38:44;;;;;;;;;;;;;;;;;;5053262;28;19912;-89
2022/11/10 03:41:10;;;;;;;;;;;;;;;;;;5053239;28;19970;-91
2022/11/10 03:43:35;;;;;;;;;;;;;;;;;;5052877;28;19917;-91
2022/11/10 03:46:01;;;;;;;;;;;;;;;;;;5085558;28;19913;-89
2022/11/10 03:48:26;;;;;;;;;;;;;;;;;;5052954;28;19917;-90
2022/11/10 03:50:51;;;;;;;;;;;;;;;;;;5050314;28;20285;-88
2022/11/10 03:53:17;;;;;;;;;;;;;;;;;;5057105;28;19921;-90
2022/11/10 03:55:42;;;;;;;;;;;;;;;;;;5071532;28;20057;-90
2022/11/10 03:58:08;;;;;;;;;;;;;;;;;;5073264;28;19925;-89
2022/11/10 04:00:33;;;;;;;;;;;;;;;;;;5073232;28;19935;-88
2022/11/10 04:02:58;;;;;;;;;;;;;;;;;;5072219;28;19920;-89
2022/11/10 04:10:57;;;;;;;;;;;;;;;;;;5040408;28;19927;-90
2022/11/10 04:16:06;;;;;;;;;;;;;;;;;;5052045;28;19923;-89
2022/11/10 04:18:32;;;;;;;;;;;;;;;;;;5055697;28;20007;-90
2022/11/10 04:20:58;;;;;;;;;;;;;;;;;;5069912;28;19964;-91
2022/11/10 04:23:33;;;;;;;;;;;;;;;;;;5070196;28;19985;-91
2022/11/10 04:28:44;;;;;;;;;;;;;;;;;;5064626;28;19924;-89
2022/11/10 04:31:09;;;;;;;;;;;;;;;;;;5053721;28;20463;-90
2022/11/10 04:33:35;;;;;;;;;;;;;;;;;;5052078;28;20031;-90
2022/11/10 04:36:00;;;;;;;;;;;;;;;;;;5053501;28;19917;-89
2022/11/10 04:38:26;;;;;;;;;;;;;;;;;;5053029;28;19916;-90
2022/11/10 04:40:51;;;;;;;;;;;;;;;;;;5084163;28;19927;-91
2022/11/10 04:43:17;;;;;;;;;;;;;;;;;;5052726;28;20336;-88
2022/11/10 04:45:44;;;;;;;;;;;;;;;;;;5051747;28;21306;-89
2022/11/10 04:48:10;;;;;;;;;;;;;;;;;;5052695;28;19917;-88
2022/11/10 04:50:35;;;;;;;;;;;;;;;;;;5052271;28;20273;-89
2022/11/10 04:53:01;;;;;;;;;;;;;;;;;;5084386;28;19921;-90
2022/11/10 04:55:26;;;;;;;;;;;;;;;;;;5052576;28;19959;-89
2022/11/10 04:57:51;;;;;;;;;;;;;;;;;;5053568;28;19946;-89
2022/11/10 05:00:17;;;;;;;;;;;;;;;;;;5062888;28;19965;-89
2022/11/10 05:02:42;;;;;;;;;;;;;;;;;;5058029;28;19929;-88
2022/11/10 05:05:08;;;;;;;;;;;;;;;;;;5052932;28;20003;-89
2022/11/10 05:07:33;;;;;;;;;;;;;;;;;;5062180;28;19973;-88
2022/11/10 05:09:59;;;;;;;;;;;;;;;;;;5073171;28;19916;-89
2022/11/10 05:12:24;;;;;;;;;;;;;;;;;;5069509;28;20379;-88
2022/11/10 05:14:50;;;;;;;;;;;;;;;;;;5070380;28;19920;-87
2022/11/10 05:17:15;;;;;;;;;;;;;;;;;;5059225;28;19999;-87
2022/11/10 05:19:41;;;;;;;;;;;;;;;;;;5053426;28;19966;-88
2022/11/10 05:22:06;;;;;;;;;;;;;;;;;;5091022;28;20008;-89
2022/11/10 05:24:32;;;;;;;;;;;;;;;;;;5052565;28;19921;-87
2022/11/10 05:26:58;;;;;;;;;;;;;;;;;;5049969;28;19967;-87
2022/11/10 05:29:23;;;;;;;;;;;;;;;;;;5039260;28;19933;-87
2022/11/10 05:31:49;;;;;;;;;;;;;;;;;;5031411;28;19971;-88
2022/11/10 05:34:14;;;;;;;;;;;;;;;;;;5031874;28;20024;-87
2022/11/10 05:36:40;;;;;;;;;;;;;;;;;;5031807;28;19965;-86
2022/11/10 05:39:05;;;;;;;;;;;;;;;;;;5031913;28;20090;-87
2022/11/10 05:41:31;;;;;;;;;;;;;;;;;;5031896;28;19917;-88
2022/11/10 05:43:56;;;;;;;;;;;;;;;;;;5034933;28;20265;-87
2022/11/10 05:46:21;;;;;;;;;;;;;;;;;;5052883;28;19921;-87
2022/11/10 05:48:47;;;;;;;;;;;;;;;;;;5056729;28;19917;-88
2022/11/10 05:51:12;;;;;;;;;;;;;;;;;;5055904;28;19917;-87
2022/11/10 05:53:38;;;;;;;;;;;;;;;;;;5056202;28;20015;-87
2022/11/10 05:56:03;;;;;;;;;;;;;;;;;;5055665;28;20359;-87
2022/11/10 05:58:29;;;;;;;;;;;;;;;;;;5090452;28;19976;-86
2022/11/10 06:00:54;;;;;;;;;;;;;;;;;;5061500;28;19931;-87
2022/11/10 06:03:20;;;;;;;;;;;;;;;;;;5062812;28;19924;-88
2022/11/10 06:05:48;;;;;;;;;;;;;;;;;;5063568;28;19931;-86
2022/11/10 06:08:14;;;;;;;;;;;;;;;;;;5060596;28;19938;-87
2022/11/10 06:10:39;;;;;;;;;;;;;;;;;;5054274;28;20368;-88
2022/11/10 06:13:05;;;;;;;;;;;;;;;;;;5053667;28;20384;-87
2022/11/10 06:15:30;;;;;;;;;;;;;;;;;;5048852;28;19955;-89
2022/11/10 06:17:56;;;;;;;;;;;;;;;;;;5032571;28;20011;-87
2022/11/10 06:20:22;;;;;;;;;;;;;;;;;;5041930;28;19917;-89
2022/11/10 06:22:58;;;;;;;;;;;;;;;;;;5053111;28;20662;-88
2022/11/10 06:25:23;;;;;;;;;;;;;;;;;;5054179;28;19931;-87
2022/11/10 06:27:49;;;;;;;;;;;;;;;;;;5052898;28;20272;-87
2022/11/10 06:30:14;;;;;;;;;;;;;;;;;;5051832;28;20015;-87
2022/11/10 06:32:43;;;;;;;;;;;;;;;;;;5052966;28;19925;-87
2022/11/10 06:35:08;;;;;;;;;;;;;;;;;;5053607;28;19948;-84
2022/11/10 06:37:34;;;;;;;;;;;;;;;;;;5085395;28;19921;-87
2022/11/10 06:39:59;;;;;;;;;;;;;;;;;;5053546;28;19917;-86
2022/11/10 06:42:25;;;;;;;;;;;;;;;;;;5053778;28;19986;-87
2022/11/10 06:44:50;;;;;;;;;;;;;;;;;;5053056;28;20364;-87
2022/11/10 06:47:17;;;;;;;;;;;;;;;;;;5053394;28;20327;-87
2022/11/10 06:49:42;;;;;;;;;;;;;;;;;;5053040;28;19924;-87
2022/11/10 06:52:08;;;;;;;;;;;;;;;;;;5051905;28;19916;-87
2022/11/10 06:54:33;;;;;;;;;;;;;;;;;;5051598;28;19974;-87
2022/11/10 06:56:58;;;;;;;;;;;;;;;;;;5052725;28;20372;-86
2022/11/10 06:59:24;;;;;;;;;;;;;;;;;;5053093;28;20012;-89
2022/11/10 07:01:49;;;;;;;;;;;;;;;;;;5053262;28;20083;-87
2022/11/10 07:04:15;;;;;;;;;;;;;;;;;;5053264;28;20338;-86
2022/11/10 07:06:40;;;;;;;;;;;;;;;;;;5052990;28;20344;-87
2022/11/10 07:09:06;;;;;;;;;;;;;;;;;;5044354;28;19921;-86
2022/11/10 07:11:31;;;;;;;;;;;;;;;;;;5033008;28;19917;-86
2022/11/10 07:13:57;;;;;;;;;;;;;;;;;;5033120;28;20368;-86
2022/11/10 07:16:22;;;;;;;;;;;;;;;;;;5032989;28;19924;-86
2022/11/10 07:18:49;;;;;;;;;;;;;;;;;;5031888;28;19918;-88
2022/11/10 07:21:14;;;;;;;;;;;;;;;;;;5033044;28;19928;-87
2022/11/10 07:23:40;;;;;;;;;;;;;;;;;;5034243;28;19921;-85
2022/11/10 07:26:06;;;;;;;;;;;;;;;;;;5049571;28;19924;-87
2022/11/10 07:28:31;;;;;;;;;;;;;;;;;;5052661;28;19999;-88
2022/11/10 07:31:00;;;;;;;;;;;;;;;;;;5052033;28;19951;-87
2022/11/10 07:33:25;;;;;;;;;;;;;;;;;;5052341;28;19921;-88
2022/11/10 07:35:55;;;;;;;;;;;;;;;;;;5052253;28;19924;-86
2022/11/10 07:38:20;;;;;;;;;;;;;;;;;;5052593;28;19917;-85
2022/11/10 07:40:49;;;;;;;;;;;;;;;;;;5084786;28;19921;-86
2022/11/10 07:43:14;;;;;;;;;;;;;;;;;;5044664;28;19921;-87
2022/11/10 07:45:40;;;;;;;;;;;;;;;;;;5032387;28;19917;-87
2022/11/10 07:48:05;;;;;;;;;;;;;;;;;;5031160;28;19917;-89
2022/11/10 07:50:32;;;;;;;;;;;;;;;;;;5032245;28;19921;-86
2022/11/10 07:53:05;;;;;;;;;;;;;;;;;;5031955;28;19928;-88
2022/11/10 07:55:30;;;;;;;;;;;;;;;;;;5031053;28;20320;-87
2022/11/10 07:57:57;;;;;;;;;;;;;;;;;;5032348;28;19925;-87
2022/11/10 08:00:22;;;;;;;;;;;;;;;;;;5064229;28;20381;-86
2022/11/10 08:02:47;;;;;;;;;;;;;;;;;;5031943;28;19918;-87
2022/11/10 08:05:13;;;;;;;;;;;;;;;;;;5030711;28;19921;-87
2022/11/10 08:07:39;;;;;;;;;;;;;;;;;;5030606;28;19921;-86
2022/11/10 08:10:05;;;;;;;;;;;;;;;;;;5048109;28;19921;-86
2022/11/10 08:12:31;;;;;;;;;;;;;;;;;;5043514;28;19932;-88
2022/11/10 08:14:56;;;;;;;;;;;;;;;;;;5031641;28;19920;-87
2022/11/10 08:17:21;;;;;;;;;;;;;;;;;;5041761;28;19916;-87
2022/11/10 08:19:47;;;;;;;;;;;;;;;;;;5052159;28;19970;-89
2022/11/10 08:22:13;;;;;;;;;;;;;;;;;;5052325;28;19975;-86
2022/11/10 08:24:38;;;;;;;;;;;;;;;;;;5052099;28;20283;-86
2022/11/10 08:27:04;;;;;;;;;;;;;;;;;;5050924;28;19927;-89
2022/11/10 08:29:29;;;;;;;;;;;;;;;;;;5051013;28;19986;-85
2022/11/10 08:31:55;;;;;;;;;;;;;;;;;;5051350;28;19950;-85
2022/11/10 08:34:21;;;;;;;;;;;;;;;;;;5053706;28;19917;-87
2022/11/10 08:36:47;;;;;;;;;;;;;;;;;;5065744;28;19924;-86
2022/11/10 08:39:13;;;;;;;;;;;;;;;;;;5066772;28;19948;-86
2022/11/10 08:41:38;;;;;;;;;;;;;;;;;;5063062;28;19967;-87
2022/11/10 08:44:03;;;;;;;;;;;;;;;;;;5057228;28;19920;-87
2022/11/10 08:46:29;;;;;;;;;;;;;;;;;;5055099;28;19920;-89
2022/11/10 08:48:54;;;;;;;;;;;;;;;;;;5084581;28;19917;-88
2022/11/10 08:51:21;;;;;;;;;;;;;;;;;;5051277;28;19940;-87
2022/11/10 08:53:46;;;;;;;;;;;;;;;;;;5049777;28;20376;-89
2022/11/10 08:56:12;;;;;;;;;;;;;;;;;;5051201;28;19917;-88
2022/11/10 08:58:37;;;;;;;;;;;;;;;;;;5051598;28;20062;-89
2022/11/10 09:01:07;;;;;;;;;;;;;;;;;;5083667;28;20342;-88
2022/11/10 09:03:32;;;;;;;;;;;;;;;;;;5051552;28;19917;-88
2022/11/10 09:05:57;;;;;;;;;;;;;;;;;;5049581;28;19924;-88
2022/11/10 09:08:23;;;;;;;;;;;;;;;;;;5051101;28;19960;-89
2022/11/10 09:10:51;;;;;;;;;;;;;;;;;;5066317;28;19920;-88
2022/11/10 09:13:17;;;;;;;;;;;;;;;;;;5066423;28;19917;-87
2022/11/10 09:15:43;;;;;;;;;;;;;;;;;;5050870;28;19940;-87
2022/11/10 09:18:10;;;;;;;;;;;;;;;;;;5051149;28;19921;-87
2022/11/10 09:20:36;;;;;;;;;;;;;;;;;;5069107;28;19917;-86
2022/11/10 09:23:09;;;;;;;;;;;;;;;;;;5070698;28;19916;-88
2022/11/10 09:25:35;;;;;;;;;;;;;;;;;;5055108;28;19920;-88
2022/11/10 09:28:01;;;;;;;;;;;;;;;;;;5054738;28;20493;-89
2022/11/10 09:30:27;;;;;;;;;;;;;;;;;;5053386;28;20396;-87
2022/11/10 09:32:53;;;;;;;;;;;;;;;;;;5054445;28;19917;-88
2022/11/10 09:35:19;;;;;;;;;;;;;;;;;;5054772;28;19921;-89
2022/11/10 09:37:44;;;;;;;;;;;;;;;;;;5070010;28;19935;-89
2022/11/10 09:40:47;;;;;;;;;;;;;;;;;;5054844;28;19916;-91
2022/11/10 09:43:18;;;;;;;;;;;;;;;;;;4992934;28;19929;-90
2022/11/10 09:45:45;;;;;;;;;;;;;;;;;;5045471;28;20376;-89
2022/11/10 09:48:16;;;;;;;;;;;;;;;;;;5054765;28;20007;-89
2022/11/10 09:50:44;;;;;;;;;;;;;;;;;;5055702;28;20369;-87
2022/11/10 09:53:19;;;;;;;;;;;;;;;;;;5054695;28;19956;-88
2022/11/10 09:55:48;;;;;;;;;;;;;;;;;;5055906;28;19916;-87
2022/11/10 09:58:14;;;;;;;;;;;;;;;;;;5059060;28;19963;-87
2022/11/10 10:00:50;;;;;;;;;;;;;;;;;;5058079;28;19921;-85
2022/11/10 10:03:18;;;;;;;;;;;;;;;;;;5055059;28;20339;-86
2022/11/10 10:05:52;;;;;;;;;;;;;;;;;;5053626;28;19921;-88
2022/11/10 10:08:32;;;;;;;;;;;;;;;;;;5056084;28;19917;-89
2022/11/10 10:11:16;;;;;;;;;;;;;;;;;;5056181;28;19928;-89
2022/11/10 10:14:02;;;;;;;;;;;;;;;;;;5040496;28;20300;-88
2022/11/10 10:16:35;;;;;;;;;;;;;;;;;;5052867;28;19917;-88
2022/11/10 10:19:22;;;;;;;;;;;;;;;;;;5041522;28;20399;-86
2022/11/10 10:22:03;;;;;;;;;;;;;;;;;;5032831;28;19917;-90
2022/11/10 10:24:31;;;;;;;;;;;;;;;;;;5032829;28;20335;-88
2022/11/10 10:27:03;;;;;;;;;;;;;;;;;;5032732;28;19920;-88
2022/11/10 10:29:31;;;;;;;;;;;;;;;;;;5034501;28;20643;-91
2022/11/10 10:31:59;;;;;;;;;;;;;;;;;;5051497;28;20486;-86
2022/11/10 10:34:29;;;;;;;;;;;;;;;;;;5053935;28;20015;-87
2022/11/10 10:36:56;;;;;;;;;;;;;;;;;;5053603;28;19974;-86
2022/11/10 10:39:21;;;;;;;;;;;;;;;;;;5052552;28;19921;-87
2022/11/10 10:41:47;;;;;;;;;;;;;;;;;;5053957;28;19923;-88
2022/11/10 10:44:14;;;;;;;;;;;;;;;;;;5053253;28;19917;-88
2022/11/10 10:46:50;;;;;;;;;;;;;;;;;;5054129;28;19940;-89
2022/11/10 10:49:20;;;;;;;;;;;;;;;;;;5053255;28;20646;-89
2022/11/10 10:51:46;;;;;;;;;;;;;;;;;;5053680;28;19920;-88
2022/11/10 10:54:24;;;;;;;;;;;;;;;;;;5053487;28;19928;-89
2022/11/10 10:56:59;;;;;;;;;;;;;;;;;;5051904;28;19917;-88
2022/11/10 10:59:24;;;;;;;;;;;;;;;;;;5053457;28;19951;-89
2022/11/10 11:01:56;;;;;;;;;;;;;;;;;;5053316;28;19955;-88
2022/11/10 11:04:35;;;;;;;;;;;;;;;;;;5053268;28;19917;-90
2022/11/10 11:07:05;;;;;;;;;;;;;;;;;;5047449;28;19917;-90
2022/11/10 11:09:39;;;;;;;;;;;;;;;;;;5050271;28;19913;-89
2022/11/10 11:12:25;;;;;;;;;;;;;;;;;;5034335;28;20373;-86
2022/11/10 11:14:52;;;;;;;;;;;;;;;;;;5064932;28;20373;-89
2022/11/10 11:17:20;;;;;;;;;;;;;;;;;;5033409;28;19921;-86
2022/11/10 11:19:46;;;;;;;;;;;;;;;;;;5032726;28;20327;-86
2022/11/10 11:22:14;;;;;;;;;;;;;;;;;;5034683;28;19924;-86
2022/11/10 11:24:44;;;;;;;;;;;;;;;;;;5033600;28;19917;-86
2022/11/10 11:27:28;;;;;;;;;;;;;;;;;;5033290;28;19928;-86
2022/11/10 11:29:54;;;;;;;;;;;;;;;;;;5048780;28;19925;-88
2022/11/10 11:32:37;;;;;;;;;;;;;;;;;;5048970;28;20395;-87
2022/11/10 11:35:14;;;;;;;;;;;;;;;;;;5032455;28;19921;-88
2022/11/10 11:37:55;;;;;;;;;;;;;;;;;;5032712;28;20036;-89
2022/11/10 11:40:26;;;;;;;;;;;;;;;;;;5031564;28;19917;-88
2022/11/10 11:43:18;;;;;;;;;;;;;;;;;;5032055;28;19918;-90
2022/11/10 11:46:02;;;;;;;;;;;;;;;;;;5072658;28;19916;-90
2022/11/10 11:48:39;;;;;;;;;;;;;;;;;;5070786;28;20295;-88
2022/11/10 11:51:10;;;;;;;;;;;;;;;;;;5055804;28;19952;-86
2022/11/10 11:53:54;;;;;;;;;;;;;;;;;;5055420;28;20175;-86
2022/11/10 11:56:23;;;;;;;;;;;;;;;;;;5053292;28;19923;-87
2022/11/10 11:59:02;;;;;;;;;;;;;;;;;;5054151;28;19917;-89
2022/11/10 12:02:03;;;;;;;;;;;;;;;;;;5058219;28;19924;-86
2022/11/10 12:04:36;;;;;;;;;;;;;;;;;;4973792;28;19928;-86
2022/11/10 12:07:08;;;;;;;;;;;;;;;;;;4970733;28;19918;-86
2022/11/10 12:09:39;;;;;;;;;;;;;;;;;;4958100;28;19931;-86
2022/11/10 12:12:24;;;;;;;;;;;;;;;;;;4957553;28;19921;-88
2022/11/10 12:15:02;;;;;;;;;;;;;;;;;;4973855;28;19918;-88
2022/11/10 12:17:49;;;;;;;;;;;;;;;;;;4957646;28;19918;-90
2022/11/10 12:20:46;;;;;;;;;;;;;;;;;;4972162;28;19972;-89
2022/11/10 12:23:44;;;;;;;;;;;;;;;;;;4950671;28;20452;-88
2022/11/10 12:26:21;;;;;;;;;;;;;;;;;;4954924;28;20042;-90
2022/11/10 12:28:50;;;;;;;;;;;;;;;;;;4975164;28;19976;-89
2022/11/10 12:31:20;;;;;;;;;;;;;;;;;;4974408;28;19926;-90
2022/11/10 12:33:52;;;;;;;;;;;;;;;;;;4970673;28;19961;-87
2022/11/10 12:36:18;;;;;;;;;;;;;;;;;;4978287;28;19902;-87
2022/11/10 12:38:47;;;;;;;;;;;;;;;;;;5032206;28;19947;-87
2022/11/10 12:41:17;;;;;;;;;;;;;;;;;;5062703;28;19920;-89
2022/11/10 12:44:01;;;;;;;;;;;;;;;;;;5062539;28;19917;-89
2022/11/10 12:46:26;;;;;;;;;;;;;;;;;;5057159;28;19913;-90
2022/11/10 12:49:01;;;;;;;;;;;;;;;;;;5068166;28;20015;-92
2022/11/10 12:51:30;;;;;;;;;;;;;;;;;;5055006;28;19919;-90
2022/11/10 12:53:55;;;;;;;;;;;;;;;;;;5054601;28;19917;-89
2022/11/10 12:56:27;;;;;;;;;;;;;;;;;;5053831;28;19924;-89
2022/11/10 12:59:11;;;;;;;;;;;;;;;;;;5054092;28;20011;-90
2022/11/10 13:01:42;;;;;;;;;;;;;;;;;;5053575;28;19943;-88
2022/11/10 13:04:07;;;;;;;;;;;;;;;;;;5052186;28;19917;-91
2022/11/10 13:06:35;;;;;;;;;;;;;;;;;;5053373;28;20024;-90
2022/11/10 13:09:01;;;;;;;;;;;;;;;;;;5051699;28;19916;-92
2022/11/10 13:11:31;;;;;;;;;;;;;;;;;;5051332;28;20304;-89
2022/11/10 13:13:58;;;;;;;;;;;;;;;;;;5055577;28;19925;-89
2022/11/10 13:16:46;;;;;;;;;;;;;;;;;;5053851;28;19917;-89
2022/11/10 13:19:37;;;;;;;;;;;;;;;;;;5052252;28;20312;-86
2022/11/10 13:22:03;;;;;;;;;;;;;;;;;;5051016;28;20290;-91
2022/11/10 13:24:28;;;;;;;;;;;;;;;;;;5050964;28;19920;-90
2022/11/10 13:26:58;;;;;;;;;;;;;;;;;;5051020;28;19928;-91
2022/11/10 13:29:35;;;;;;;;;;;;;;;;;;5050944;28;19921;-87
2022/11/10 13:32:07;;;;;;;;;;;;;;;;;;5050601;28;19940;-86
2022/11/10 13:34:37;;;;;;;;;;;;;;;;;;5050342;28;19916;-86
2022/11/10 13:37:22;;;;;;;;;;;;;;;;;;5050466;28;19928;-86
2022/11/10 13:39:47;;;;;;;;;;;;;;;;;;5049532;28;19917;-91
2022/11/10 13:42:22;;;;;;;;;;;;;;;;;;5052420;28;20004;-88
2022/11/10 13:44:50;;;;;;;;;;;;;;;;;;5050762;28;19970;-87
2022/11/10 13:47:33;;;;;;;;;;;;;;;;;;5051022;28;19920;-86
2022/11/10 13:50:05;;;;;;;;;;;;;;;;;;5051164;28;19917;-90
2022/11/10 13:52:49;;;;;;;;;;;;;;;;;;5050907;28;19917;-89
2022/11/10 13:55:17;;;;;;;;;;;;;;;;;;5050393;28;20299;-91
2022/11/10 13:57:56;;;;;;;;;;;;;;;;;;5049373;28;19920;-90
2022/11/10 14:00:24;;;;;;;;;;;;;;;;;;5050502;28;19917;-91
2022/11/10 14:02:51;;;;;;;;;;;;;;;;;;5050718;28;20392;-89
2022/11/10 14:05:36;;;;;;;;;;;;;;;;;;5050443;28;19917;-90
2022/11/10 14:08:08;;;;;;;;;;;;;;;;;;5053252;28;20307;-90
2022/11/10 14:10:36;;;;;;;;;;;;;;;;;;5054196;28;19917;-89
2022/11/10 14:13:05;;;;;;;;;;;;;;;;;;5069624;28;19917;-85
2022/11/10 14:15:37;;;;;;;;;;;;;;;;;;5053867;28;20007;-86
2022/11/10 14:18:13;;;;;;;;;;;;;;;;;;5054136;28;20008;-90
2022/11/10 14:20:38;;;;;;;;;;;;;;;;;;5053788;28;19916;-88
2022/11/10 14:23:04;;;;;;;;;;;;;;;;;;5053733;28;19982;-93
2022/11/10 14:25:52;;;;;;;;;;;;;;;;;;5053635;28;19943;-90
2022/11/10 14:28:36;;;;;;;;;;;;;;;;;;5053376;28;19920;-86
2022/11/10 14:31:01;;;;;;;;;;;;;;;;;;5053386;28;20421;-87
2022/11/10 14:33:27;;;;;;;;;;;;;;;;;;5053543;28;19921;-91
2022/11/10 14:35:54;;;;;;;;;;;;;;;;;;5052870;28;19970;-90
2022/11/10 14:38:32;;;;;;;;;;;;;;;;;;5053514;28;19921;-91
2022/11/10 14:40:59;;;;;;;;;;;;;;;;;;5053355;28;19917;-91
2022/11/10 14:43:34;;;;;;;;;;;;;;;;;;5053631;28;19921;-86
2022/11/10 14:46:00;;;;;;;;;;;;;;;;;;5053958;28;20300;-89
2022/11/10 14:48:27;;;;;;;;;;;;;;;;;;5054598;28;19921;-91
2022/11/10 14:50:53;;;;;;;;;;;;;;;;;;5054090;28;19917;-88
2022/11/10 14:53:36;;;;;;;;;;;;;;;;;;5053527;28;19970;-85
2022/11/10 14:56:02;;;;;;;;;;;;;;;;;;5052862;28;19923;-89
2022/11/10 14:58:33;;;;;;;;;;;;;;;;;;5052913;28;19913;-89
2022/11/10 15:00:59;;;;;;;;;;;;;;;;;;5053280;28;19917;-88
2022/11/10 15:03:35;;;;;;;;;;;;;;;;;;5054602;28;19917;-90
2022/11/10 15:06:01;;;;;;;;;;;;;;;;;;5053459;28;19917;-88
2022/11/10 15:08:27;;;;;;;;;;;;;;;;;;5034423;28;19917;-86
2022/11/10 15:10:55;;;;;;;;;;;;;;;;;;5033239;28;20303;-89
2022/11/10 15:13:26;;;;;;;;;;;;;;;;;;5031601;28;19917;-87
2022/11/10 15:16:10;;;;;;;;;;;;;;;;;;5032662;28;20007;-87
2022/11/10 15:18:36;;;;;;;;;;;;;;;;;;5032444;28;19939;-89
2022/11/10 15:21:02;;;;;;;;;;;;;;;;;;5031504;28;20296;-87
2022/11/10 15:23:34;;;;;;;;;;;;;;;;;;5048475;28;19942;-87
2022/11/10 15:26:00;;;;;;;;;;;;;;;;;;5048948;28;20304;-88
2022/11/10 15:28:31;;;;;;;;;;;;;;;;;;5049957;28;19927;-90
2022/11/10 15:30:59;;;;;;;;;;;;;;;;;;5044328;28;19931;-88
2022/11/10 15:33:26;;;;;;;;;;;;;;;;;;5046686;28;19951;-89
2022/11/10 15:35:52;;;;;;;;;;;;;;;;;;5047525;28;20440;-87
2022/11/10 15:38:17;;;;;;;;;;;;;;;;;;5036807;28;20125;-87
2022/11/10 15:40:47;;;;;;;;;;;;;;;;;;5050573;28;19920;-88
2022/11/10 15:43:13;;;;;;;;;;;;;;;;;;5037715;28;19921;-86
2022/11/10 15:45:38;;;;;;;;;;;;;;;;;;5033392;28;19921;-89
2022/11/10 15:48:04;;;;;;;;;;;;;;;;;;5028565;28;19929;-87
2022/11/10 15:50:30;;;;;;;;;;;;;;;;;;5040376;28;19932;-89
2022/11/10 15:52:55;;;;;;;;;;;;;;;;;;5038292;28;19925;-90
2022/11/10 15:55:22;;;;;;;;;;;;;;;;;;5043520;28;19920;-89
2022/11/10 15:57:47;;;;;;;;;;;;;;;;;;5047994;28;20009;-92
2022/11/10 16:00:13;;;;;;;;;;;;;;;;;;5046889;28;19920;-90
2022/11/10 16:02:39;;;;;;;;;;;;;;;;;;5044556;28;19933;-89
2022/11/10 16:05:11;;;;;;;;;;;;;;;;;;5034304;28;19929;-88
2022/11/10 16:07:36;;;;;;;;;;;;;;;;;;5050320;28;20007;-91
2022/11/10 16:10:03;;;;;;;;;;;;;;;;;;5048727;28;20027;-91
2022/11/10 16:12:28;;;;;;;;;;;;;;;;;;5036036;28;19948;-90
2022/11/10 16:14:54;;;;;;;;;;;;;;;;;;5044721;28;20368;-90
2022/11/10 16:17:20;;;;;;;;;;;;;;;;;;5033351;28;19920;-90
2022/11/10 16:19:45;;;;;;;;;;;;;;;;;;5049234;28;19924;-87
2022/11/10 16:22:11;;;;;;;;;;;;;;;;;;5049098;28;19917;-90
2022/11/10 16:24:37;;;;;;;;;;;;;;;;;;5050042;28;19928;-92
2022/11/10 16:27:06;;;;;;;;;;;;;;;;;;5053055;28;20448;-91
2022/11/10 16:29:33;;;;;;;;;;;;;;;;;;5044052;28;20012;-91
2022/11/10 16:31:59;;;;;;;;;;;;;;;;;;5041035;28;19925;-90
2022/11/10 16:34:24;;;;;;;;;;;;;;;;;;5050357;28;19928;-91
2022/11/10 16:36:50;;;;;;;;;;;;;;;;;;5049587;28;19920;-88
2022/11/10 16:39:16;;;;;;;;;;;;;;;;;;5048029;28;20438;-91
2022/11/10 16:41:41;;;;;;;;;;;;;;;;;;5047700;28;19921;-91
2022/11/10 16:44:13;;;;;;;;;;;;;;;;;;5057394;28;19929;-91
2022/11/10 16:46:40;;;;;;;;;;;;;;;;;;5069217;28;19905;-89
2022/11/10 16:49:14;;;;;;;;;;;;;;;;;;5070409;28;20220;-90
2022/11/10 16:51:40;;;;;;;;;;;;;;;;;;5067392;28;19921;-89
2022/11/10 16:54:09;;;;;;;;;;;;;;;;;;5061908;28;20006;-91
2022/11/10 16:56:34;;;;;;;;;;;;;;;;;;5056400;28;19943;-90
2022/11/10 16:58:59;;;;;;;;;;;;;;;;;;5054121;28;19940;-89
2022/11/10 17:01:26;;;;;;;;;;;;;;;;;;5052910;28;19927;-91
2022/11/10 17:03:54;;;;;;;;;;;;;;;;;;5049748;28;20323;-89
2022/11/10 17:06:20;;;;;;;;;;;;;;;;;;5081809;28;19961;-90
2022/11/10 17:08:47;;;;;;;;;;;;;;;;;;5036818;28;19993;-93